createdAt,value
2018-02-15T00:00:16.043Z,3.99
2018-02-15T00:01:15.993Z,3.96
2018-02-15T00:02:15.945Z,3.88
2018-02-15T00:03:15.897Z,3.95
2018-02-15T00:04:15.847Z,3.88
2018-02-15T00:05:15.798Z,3.91
2018-02-15T00:06:15.752Z,4.02
2018-02-15T00:07:15.701Z,4.00
2018-02-15T00:08:15.657Z,3.89
2018-02-15T00:09:15.605Z,3.92
2018-02-15T00:10:15.554Z,4.06
2018-02-15T00:11:15.513Z,3.99
2018-02-15T00:12:15.460Z,3.95
2018-02-15T00:13:15.411Z,3.89
2018-02-15T00:14:15.368Z,3.91
2018-02-15T00:15:15.316Z,3.91
2018-02-15T00:16:15.262Z,4.04
2018-02-15T00:17:15.223Z,3.92
2018-02-15T00:18:15.169Z,3.86
2018-02-15T00:19:15.120Z,3.88
2018-02-15T00:20:15.071Z,3.92
2018-02-15T00:21:15.023Z,4.00
2018-02-15T00:22:14.976Z,4.02
2018-02-15T00:23:14.922Z,3.99
2018-02-15T00:24:14.873Z,4.00
2018-02-15T00:25:14.828Z,3.91
2018-02-15T00:26:14.777Z,3.94
2018-02-15T00:27:14.729Z,4.00
2018-02-15T00:28:14.680Z,3.95
2018-02-15T00:29:14.631Z,3.94
2018-02-15T00:30:14.584Z,3.88
2018-02-15T00:31:14.535Z,4.00
2018-02-15T00:32:14.488Z,3.95
2018-02-15T00:33:14.439Z,3.94
2018-02-15T00:34:14.388Z,4.06
2018-02-15T00:35:14.342Z,4.06
2018-02-15T00:36:14.290Z,3.99
2018-02-15T00:37:14.242Z,3.88
2018-02-15T00:38:14.194Z,3.94
2018-02-15T00:39:14.146Z,3.88
2018-02-15T00:40:14.098Z,4.02
2018-02-15T00:41:14.049Z,3.96
2018-02-15T00:42:13.999Z,4.02
2018-02-15T00:43:13.951Z,3.96
2018-02-15T00:44:13.903Z,4.00
2018-02-15T00:45:13.855Z,3.92
2018-02-15T00:46:13.808Z,3.96
2018-02-15T00:47:13.760Z,4.06
2018-02-15T00:48:13.706Z,4.04
2018-02-15T00:49:13.657Z,3.99
2018-02-15T00:50:13.614Z,3.92
2018-02-15T00:51:13.563Z,3.89
2018-02-15T00:52:13.518Z,3.88
2018-02-15T00:53:13.463Z,3.89
2018-02-15T00:54:13.419Z,3.95
2018-02-15T00:55:13.369Z,3.95
2018-02-15T00:56:13.319Z,4.02
2018-02-15T00:57:13.270Z,4.03
2018-02-15T00:58:13.223Z,3.94
2018-02-15T00:59:13.176Z,3.95
2018-02-15T01:00:13.129Z,3.92
2018-02-15T01:01:13.081Z,4.03
2018-02-15T01:02:13.028Z,4.02
2018-02-15T01:03:12.981Z,3.92
2018-02-15T01:04:12.929Z,3.96
2018-02-15T01:05:12.885Z,3.99
2018-02-15T01:06:12.834Z,4.03
2018-02-15T01:07:12.787Z,4.02
2018-02-15T01:08:12.733Z,4.02
2018-02-15T01:09:12.687Z,4.06
2018-02-15T01:10:12.639Z,4.07
2018-02-15T01:11:12.589Z,3.96
2018-02-15T01:12:12.539Z,4.06
2018-02-15T01:13:12.491Z,4.04
2018-02-15T01:14:12.445Z,4.04
2018-02-15T01:15:12.394Z,4.07
2018-02-15T01:16:12.350Z,3.95
2018-02-15T01:17:12.300Z,4.09
2018-02-15T01:18:12.248Z,4.03
2018-02-15T01:19:12.205Z,3.99
2018-02-15T01:20:12.150Z,4.12
2018-02-15T01:21:12.104Z,4.06
2018-02-15T01:22:12.057Z,4.09
2018-02-15T01:23:12.007Z,3.99
2018-02-15T01:24:11.960Z,4.10
2018-02-15T01:25:11.909Z,4.07
2018-02-15T01:26:11.860Z,4.13
2018-02-15T01:27:11.815Z,4.03
2018-02-15T01:28:11.763Z,4.16
2018-02-15T01:29:11.714Z,4.14
2018-02-15T01:30:11.667Z,4.07
2018-02-15T01:31:11.616Z,4.14
2018-02-15T01:32:11.567Z,4.13
2018-02-15T01:33:11.524Z,4.14
2018-02-15T01:34:11.470Z,4.14
2018-02-15T01:35:11.421Z,4.16
2018-02-15T01:36:11.373Z,4.22
2018-02-15T01:37:11.324Z,4.20
2018-02-15T01:38:11.275Z,4.21
2018-02-15T01:39:11.235Z,4.20
2018-02-15T01:40:11.182Z,4.24
2018-02-15T01:41:11.130Z,4.21
2018-02-15T01:42:11.087Z,4.18
2018-02-15T01:43:11.034Z,4.18
2018-02-15T01:44:10.982Z,4.14
2018-02-15T01:45:10.935Z,4.20
2018-02-15T01:46:10.890Z,4.18
2018-02-15T01:47:10.841Z,4.31
2018-02-15T01:48:10.788Z,4.20
2018-02-15T01:49:10.741Z,4.31
2018-02-15T01:50:10.691Z,4.13
2018-02-15T01:51:10.642Z,4.28
2018-02-15T01:52:10.639Z,4.27
2018-02-15T01:53:10.548Z,4.30
2018-02-15T01:54:10.499Z,4.27
2018-02-15T01:55:10.490Z,4.25
2018-02-15T01:56:10.403Z,4.27
2018-02-15T01:57:10.433Z,4.27
2018-02-15T01:58:10.510Z,4.30
2018-02-15T01:59:10.255Z,4.31
2018-02-15T02:00:10.208Z,4.28
2018-02-15T02:01:10.161Z,4.32
2018-02-15T02:02:10.109Z,4.27
2018-02-15T02:03:10.061Z,4.30
2018-02-15T02:04:10.018Z,4.25
2018-02-15T02:05:09.964Z,4.38
2018-02-15T02:06:09.917Z,4.31
2018-02-15T02:07:09.866Z,4.27
2018-02-15T02:08:09.820Z,4.30
2018-02-15T02:09:09.771Z,4.22
2018-02-15T02:10:09.721Z,4.27
2018-02-15T02:11:09.678Z,4.28
2018-02-15T02:12:09.632Z,4.28
2018-02-15T02:13:09.576Z,4.36
2018-02-15T02:14:09.528Z,4.32
2018-02-15T02:15:09.481Z,4.30
2018-02-15T02:16:09.436Z,4.36
2018-02-15T02:17:09.381Z,4.40
2018-02-15T02:18:09.335Z,4.39
2018-02-15T02:19:09.283Z,4.31
2018-02-15T02:20:09.234Z,4.32
2018-02-15T02:21:09.191Z,4.32
2018-02-15T02:22:09.138Z,4.34
2018-02-15T02:23:09.093Z,4.46
2018-02-15T02:24:09.041Z,4.34
2018-02-15T02:25:08.995Z,4.36
2018-02-15T02:26:08.945Z,4.40
2018-02-15T02:27:08.898Z,4.40
2018-02-15T02:28:08.846Z,4.48
2018-02-15T02:29:08.801Z,4.42
2018-02-15T02:30:08.751Z,4.43
2018-02-15T02:31:08.704Z,4.36
2018-02-15T02:32:08.654Z,4.48
2018-02-15T02:33:08.603Z,4.42
2018-02-15T02:34:08.558Z,4.46
2018-02-15T02:35:08.507Z,4.39
2018-02-15T02:36:08.466Z,4.45
2018-02-15T02:37:08.415Z,4.40
2018-02-15T02:38:08.368Z,4.38
2018-02-15T02:39:08.314Z,4.45
2018-02-15T02:40:08.265Z,4.40
2018-02-15T02:41:08.218Z,4.40
2018-02-15T02:42:08.168Z,4.42
2018-02-15T02:43:08.119Z,4.46
2018-02-15T02:44:08.076Z,4.45
2018-02-15T02:45:08.025Z,4.42
2018-02-15T02:46:07.973Z,4.43
2018-02-15T02:47:07.926Z,4.45
2018-02-15T02:48:07.880Z,4.39
2018-02-15T02:49:07.830Z,4.45
2018-02-15T02:50:07.781Z,4.42
2018-02-15T02:51:07.731Z,4.48
2018-02-15T02:52:07.681Z,4.48
2018-02-15T02:53:07.633Z,4.45
2018-02-15T02:54:07.585Z,4.49
2018-02-15T02:55:07.539Z,4.39
2018-02-15T02:56:07.489Z,4.43
2018-02-15T02:57:07.438Z,4.43
2018-02-15T02:58:07.392Z,4.40
2018-02-15T02:59:07.344Z,4.40
2018-02-15T03:00:07.299Z,4.52
2018-02-15T03:01:07.247Z,4.48
2018-02-15T03:02:07.200Z,4.46
2018-02-15T03:03:07.147Z,4.43
2018-02-15T03:04:07.101Z,4.46
2018-02-15T03:05:07.056Z,4.46
2018-02-15T03:06:07.003Z,4.46
2018-02-15T03:07:06.972Z,4.40
2018-02-15T03:08:06.904Z,4.46
2018-02-15T03:09:06.856Z,4.43
2018-02-15T03:10:06.808Z,4.46
2018-02-15T03:11:06.761Z,4.46
2018-02-15T03:12:06.710Z,4.46
2018-02-15T03:13:06.665Z,4.48
2018-02-15T03:14:06.614Z,4.52
2018-02-15T03:15:06.570Z,4.46
2018-02-15T03:16:06.518Z,4.50
2018-02-15T03:17:06.470Z,4.40
2018-02-15T03:18:06.422Z,4.40
2018-02-15T03:19:06.370Z,4.46
2018-02-15T03:20:06.324Z,4.45
2018-02-15T03:21:06.276Z,4.43
2018-02-15T03:22:06.235Z,4.40
2018-02-15T03:23:06.180Z,4.46
2018-02-15T03:24:06.134Z,4.45
2018-02-15T03:25:06.086Z,4.45
2018-02-15T03:26:06.031Z,4.46
2018-02-15T03:27:05.985Z,4.45
2018-02-15T03:28:05.940Z,4.39
2018-02-15T03:29:05.890Z,4.42
2018-02-15T03:30:05.840Z,4.49
2018-02-15T03:31:05.794Z,4.40
2018-02-15T03:32:05.749Z,4.40
2018-02-15T03:33:05.694Z,4.30
2018-02-15T03:34:05.644Z,4.30
2018-02-15T03:35:05.599Z,4.36
2018-02-15T03:36:05.547Z,4.32
2018-02-15T03:37:05.502Z,4.25
2018-02-15T03:38:05.453Z,4.36
2018-02-15T03:39:05.403Z,4.27
2018-02-15T03:40:05.357Z,4.22
2018-02-15T03:41:05.306Z,4.16
2018-02-15T03:42:05.257Z,4.10
2018-02-15T03:43:05.209Z,4.18
2018-02-15T03:44:05.164Z,4.04
2018-02-15T03:45:05.114Z,4.06
2018-02-15T03:46:05.063Z,3.85
2018-02-15T03:47:05.017Z,3.86
2018-02-15T03:48:04.968Z,3.81
2018-02-15T03:49:04.917Z,3.67
2018-02-15T03:50:04.929Z,3.64
2018-02-15T03:51:04.941Z,3.59
2018-02-15T03:52:04.772Z,3.46
2018-02-15T03:53:04.725Z,3.43
2018-02-15T03:54:04.674Z,3.41
2018-02-15T03:55:04.625Z,3.34
2018-02-15T03:56:04.576Z,3.27
2018-02-15T03:57:04.527Z,3.29
2018-02-15T03:58:04.478Z,3.21
2018-02-15T03:59:04.430Z,3.12
2018-02-15T04:00:04.385Z,3.03
2018-02-15T04:01:04.331Z,3.06
2018-02-15T04:02:04.283Z,3.03
2018-02-15T04:03:04.234Z,3.01
2018-02-15T04:04:04.186Z,2.87
2018-02-15T04:05:04.133Z,2.83
2018-02-15T04:06:04.090Z,2.91
2018-02-15T04:07:04.042Z,2.82
2018-02-15T04:08:03.992Z,2.90
2018-02-15T04:09:03.938Z,2.85
2018-02-15T04:10:03.893Z,2.76
2018-02-15T04:11:03.842Z,2.76
2018-02-15T04:12:03.792Z,2.65
2018-02-15T04:13:03.757Z,2.72
2018-02-15T04:14:03.694Z,2.69
2018-02-15T04:15:03.647Z,2.58
2018-02-15T04:16:03.600Z,2.58
2018-02-15T04:17:03.553Z,2.57
2018-02-15T04:18:03.495Z,2.50
2018-02-15T04:19:03.448Z,2.51
2018-02-15T04:20:03.398Z,2.44
2018-02-15T04:21:03.350Z,2.43
2018-02-15T04:22:03.301Z,2.36
2018-02-15T04:23:03.271Z,2.30
2018-02-15T04:24:03.204Z,2.28
2018-02-15T04:25:03.153Z,2.21
2018-02-15T04:26:03.102Z,2.16
2018-02-15T04:27:03.054Z,2.15
2018-02-15T04:28:03.003Z,2.03
2018-02-15T04:29:02.954Z,2.10
2018-02-15T04:30:02.912Z,2.08
2018-02-15T04:31:02.861Z,2.00
2018-02-15T04:32:02.807Z,1.97
2018-02-15T04:33:02.760Z,1.95
2018-02-15T04:34:02.713Z,1.95
2018-02-15T04:35:02.663Z,1.93
2018-02-15T04:36:02.609Z,1.93
2018-02-15T04:37:02.562Z,1.98
2018-02-15T04:38:02.512Z,1.92
2018-02-15T04:39:02.460Z,1.92
2018-02-15T04:40:02.411Z,1.89
2018-02-15T04:41:02.366Z,1.98
2018-02-15T04:42:02.312Z,1.82
2018-02-15T04:43:02.268Z,1.75
2018-02-15T04:44:02.213Z,1.86
2018-02-15T04:45:02.164Z,1.78
2018-02-15T04:46:02.143Z,1.75
2018-02-15T04:47:02.071Z,1.75
2018-02-15T04:48:02.014Z,1.78
2018-02-15T04:49:01.967Z,1.81
2018-02-15T04:50:01.921Z,1.71
2018-02-15T04:51:01.866Z,1.78
2018-02-15T04:52:01.815Z,1.66
2018-02-15T04:53:01.769Z,1.71
2018-02-15T04:54:01.723Z,1.70
2018-02-15T04:55:01.675Z,1.75
2018-02-15T04:56:01.616Z,1.64
2018-02-15T04:57:01.566Z,1.68
2018-02-15T04:58:01.519Z,1.68
2018-02-15T04:59:01.470Z,1.74
2018-02-15T05:00:01.421Z,1.66
2018-02-15T05:01:01.371Z,1.66
2018-02-15T05:02:01.320Z,1.63
2018-02-15T05:03:01.273Z,1.66
2018-02-15T05:04:01.221Z,1.67
2018-02-15T05:05:01.172Z,1.64
2018-02-15T05:06:01.123Z,1.63
2018-02-15T05:07:01.072Z,1.71
2018-02-15T05:08:01.024Z,1.75
2018-02-15T05:09:00.970Z,1.64
2018-02-15T05:10:00.932Z,1.67
2018-02-15T05:11:00.874Z,1.61
2018-02-15T05:12:00.827Z,1.67
2018-02-15T05:13:00.785Z,1.71
2018-02-15T05:14:00.725Z,1.67
2018-02-15T05:15:00.675Z,1.63
2018-02-15T05:16:00.625Z,1.70
2018-02-15T05:17:00.575Z,1.61
2018-02-15T05:18:00.524Z,1.67
2018-02-15T05:19:00.478Z,1.64
2018-02-15T05:20:00.425Z,1.61
2018-02-15T05:21:00.382Z,1.58
2018-02-15T05:22:00.323Z,1.70
2018-02-15T05:23:00.274Z,1.58
2018-02-15T05:24:00.227Z,1.61
2018-02-15T05:25:00.183Z,1.67
2018-02-15T05:26:00.124Z,1.60
2018-02-15T05:27:00.073Z,1.57
2018-02-15T05:28:00.030Z,1.58
2018-02-15T05:28:59.975Z,1.58
2018-02-15T05:29:59.927Z,1.56
2018-02-15T05:30:59.876Z,1.56
2018-02-15T05:31:59.825Z,1.57
2018-02-15T05:32:59.776Z,1.68
2018-02-15T05:33:59.729Z,1.60
2018-02-15T05:34:59.675Z,1.60
2018-02-15T05:35:59.628Z,1.58
2018-02-15T05:36:59.583Z,1.58
2018-02-15T05:37:59.524Z,1.58
2018-02-15T05:38:59.477Z,1.58
2018-02-15T05:39:59.430Z,1.58
2018-02-15T05:40:59.375Z,1.60
2018-02-15T05:41:59.326Z,1.66
2018-02-15T05:42:59.278Z,1.53
2018-02-15T05:43:59.232Z,1.53
2018-02-15T05:44:59.181Z,1.66
2018-02-15T05:45:59.123Z,1.66
2018-02-15T05:46:59.078Z,1.60
2018-02-15T05:47:59.026Z,1.57
2018-02-15T05:48:58.977Z,1.63
2018-02-15T05:49:58.925Z,1.61
2018-02-15T05:50:58.876Z,1.63
2018-02-15T05:51:58.834Z,1.57
2018-02-15T05:52:58.778Z,1.66
2018-02-15T05:53:58.733Z,1.56
2018-02-15T05:54:58.683Z,1.57
2018-02-15T05:55:58.627Z,1.66
2018-02-15T05:56:58.578Z,1.64
2018-02-15T05:57:58.528Z,1.57
2018-02-15T05:58:58.477Z,1.63
2018-02-15T05:59:58.427Z,1.57
2018-02-15T06:00:58.376Z,1.64
2018-02-15T06:01:58.328Z,1.56
2018-02-15T06:02:58.280Z,1.64
2018-02-15T06:03:58.229Z,1.68
2018-02-15T06:04:58.176Z,1.67
2018-02-15T06:05:58.126Z,1.66
2018-02-15T06:06:58.079Z,1.67
2018-02-15T06:07:58.027Z,1.63
2018-02-15T06:08:57.975Z,1.64
2018-02-15T06:09:57.928Z,1.67
2018-02-15T06:10:57.877Z,1.74
2018-02-15T06:11:57.826Z,1.74
2018-02-15T06:12:57.778Z,1.66
2018-02-15T06:13:57.729Z,1.71
2018-02-15T06:14:57.675Z,1.71
2018-02-15T06:15:57.625Z,1.71
2018-02-15T06:16:57.581Z,1.68
2018-02-15T06:17:57.537Z,1.68
2018-02-15T06:18:57.477Z,1.75
2018-02-15T06:19:57.426Z,1.81
2018-02-15T06:20:57.376Z,1.76
2018-02-15T06:21:57.332Z,1.76
2018-02-15T06:22:57.276Z,1.78
2018-02-15T06:23:57.228Z,1.75
2018-02-15T06:24:57.178Z,1.89
2018-02-15T06:25:57.124Z,1.89
2018-02-15T06:26:57.080Z,1.78
2018-02-15T06:27:57.028Z,1.84
2018-02-15T06:28:56.977Z,1.89
2018-02-15T06:29:56.937Z,1.95
2018-02-15T06:30:56.877Z,1.95
2018-02-15T06:31:56.828Z,1.92
2018-02-15T06:32:56.777Z,1.93
2018-02-15T06:33:56.737Z,2.07
2018-02-15T06:34:56.682Z,2.00
2018-02-15T06:35:56.629Z,1.95
2018-02-15T06:36:56.576Z,1.89
2018-02-15T06:37:56.526Z,2.00
2018-02-15T06:38:56.482Z,2.00
2018-02-15T06:39:56.428Z,1.98
2018-02-15T06:40:56.380Z,1.98
2018-02-15T06:41:56.330Z,2.05
2018-02-15T06:42:56.279Z,2.07
2018-02-15T06:43:56.230Z,2.12
2018-02-15T06:44:56.180Z,2.08
2018-02-15T06:45:56.134Z,2.18
2018-02-15T06:46:56.078Z,2.22
2018-02-15T06:47:56.032Z,2.21
2018-02-15T06:48:55.980Z,2.21
2018-02-15T06:49:55.935Z,2.19
2018-02-15T06:50:55.881Z,2.25
2018-02-15T06:51:55.829Z,2.32
2018-02-15T06:52:55.779Z,2.23
2018-02-15T06:54:55.683Z,2.32
2018-02-15T06:55:55.633Z,2.22
2018-02-15T06:56:55.590Z,2.26
2018-02-15T06:57:55.535Z,2.39
2018-02-15T06:58:55.482Z,2.41
2018-02-15T06:59:55.433Z,2.26
2018-02-15T07:00:55.380Z,2.36
2018-02-15T07:01:55.332Z,2.44
2018-02-15T07:02:55.286Z,2.43
2018-02-15T07:03:55.231Z,2.33
2018-02-15T07:04:55.186Z,2.36
2018-02-15T07:05:55.141Z,2.40
2018-02-15T07:06:55.085Z,2.32
2018-02-15T07:07:55.037Z,2.44
2018-02-15T07:08:57.686Z,2.43
2018-02-15T07:09:54.936Z,2.43
2018-02-15T07:10:54.891Z,2.44
2018-02-15T07:11:54.874Z,2.41
2018-02-15T07:12:54.786Z,2.51
2018-02-15T07:13:54.738Z,2.51
2018-02-15T07:14:54.688Z,2.57
2018-02-15T07:15:54.636Z,2.58
2018-02-15T07:16:54.587Z,2.54
2018-02-15T07:17:54.538Z,2.47
2018-02-15T07:18:54.485Z,2.58
2018-02-15T07:19:54.435Z,2.51
2018-02-15T07:20:54.391Z,2.55
2018-02-15T07:21:54.335Z,2.58
2018-02-15T07:22:54.289Z,2.52
2018-02-15T07:23:54.240Z,2.55
2018-02-15T07:24:54.189Z,2.57
2018-02-15T07:25:54.137Z,2.57
2018-02-15T07:26:54.087Z,2.58
2018-02-15T07:27:54.036Z,2.57
2018-02-15T07:28:53.993Z,2.61
2018-02-15T07:29:53.944Z,2.58
2018-02-15T07:30:53.890Z,2.55
2018-02-15T07:31:53.843Z,2.65
2018-02-15T07:32:53.792Z,2.54
2018-02-15T07:33:53.742Z,2.68
2018-02-15T07:34:53.691Z,2.69
2018-02-15T07:35:53.641Z,2.72
2018-02-15T07:36:53.592Z,2.62
2018-02-15T07:37:53.542Z,2.69
2018-02-15T07:38:53.493Z,2.62
2018-02-15T07:39:53.445Z,2.70
2018-02-15T07:40:53.396Z,2.77
2018-02-15T07:41:53.347Z,2.72
2018-02-15T07:42:53.296Z,2.70
2018-02-15T07:43:53.246Z,2.62
2018-02-15T07:44:53.198Z,2.75
2018-02-15T07:45:53.149Z,2.69
2018-02-15T07:46:53.098Z,2.77
2018-02-15T07:47:53.046Z,2.73
2018-02-15T07:48:52.996Z,2.76
2018-02-15T07:49:52.951Z,2.76
2018-02-15T07:50:52.900Z,2.85
2018-02-15T07:51:52.848Z,2.90
2018-02-15T07:52:52.798Z,2.83
2018-02-15T07:53:52.750Z,2.87
2018-02-15T07:54:52.700Z,2.88
2018-02-15T07:55:52.653Z,2.87
2018-02-15T07:56:52.600Z,2.83
2018-02-15T07:57:52.553Z,2.90
2018-02-15T07:58:52.506Z,2.91
2018-02-15T07:59:52.452Z,2.93
2018-02-15T08:00:52.402Z,2.88
2018-02-15T08:01:52.354Z,2.88
2018-02-15T08:02:52.305Z,2.90
2018-02-15T08:03:52.254Z,2.83
2018-02-15T08:04:52.204Z,2.91
2018-02-15T08:05:52.157Z,2.98
2018-02-15T08:06:52.106Z,2.98
2018-02-15T08:07:52.061Z,2.97
2018-02-15T08:08:52.011Z,2.98
2018-02-15T08:09:51.957Z,2.98
2018-02-15T08:10:51.908Z,3.00
2018-02-15T08:11:51.860Z,3.01
2018-02-15T08:12:51.807Z,3.00
2018-02-15T08:13:51.760Z,3.01
2018-02-15T08:14:51.715Z,3.03
2018-02-15T08:15:51.663Z,2.98
2018-02-15T08:16:51.610Z,2.97
2018-02-15T08:17:51.564Z,3.01
2018-02-15T08:18:51.517Z,3.01
2018-02-15T08:19:51.462Z,2.98
2018-02-15T08:20:51.414Z,3.05
2018-02-15T08:21:51.365Z,3.05
2018-02-15T08:22:51.340Z,3.00
2018-02-15T08:23:51.272Z,3.05
2018-02-15T08:24:51.216Z,3.09
2018-02-15T08:25:51.171Z,3.09
2018-02-15T08:26:51.120Z,3.12
2018-02-15T08:27:51.071Z,3.11
2018-02-15T08:28:51.020Z,3.09
2018-02-15T08:29:50.974Z,3.13
2018-02-15T08:30:50.921Z,3.05
2018-02-15T08:31:50.872Z,3.15
2018-02-15T08:32:50.826Z,3.18
2018-02-15T08:33:50.808Z,3.06
2018-02-15T08:34:50.725Z,3.08
2018-02-15T08:35:50.675Z,3.19
2018-02-15T08:36:50.626Z,3.06
2018-02-15T08:37:50.578Z,3.13
2018-02-15T08:38:50.526Z,3.26
2018-02-15T08:39:50.478Z,3.11
2018-02-15T08:40:50.430Z,3.06
2018-02-15T08:41:50.383Z,3.12
2018-02-15T08:42:50.330Z,3.21
2018-02-15T08:43:50.293Z,3.21
2018-02-15T08:44:50.231Z,3.21
2018-02-15T08:45:50.183Z,3.16
2018-02-15T08:46:50.132Z,3.16
2018-02-15T08:47:50.083Z,3.21
2018-02-15T08:48:50.034Z,3.26
2018-02-15T08:49:49.984Z,3.19
2018-02-15T08:50:49.937Z,3.26
2018-02-15T08:51:49.885Z,3.22
2018-02-15T08:52:49.838Z,3.16
2018-02-15T08:53:49.787Z,3.27
2018-02-15T08:54:49.740Z,3.24
2018-02-15T08:55:49.691Z,3.26
2018-02-15T08:56:49.645Z,3.19
2018-02-15T08:57:49.596Z,3.15
2018-02-15T08:58:49.543Z,3.30
2018-02-15T08:59:49.496Z,3.21
2018-02-15T09:00:49.446Z,3.19
2018-02-15T09:01:49.395Z,3.21
2018-02-15T09:02:49.347Z,3.26
2018-02-15T09:03:49.298Z,3.22
2018-02-15T09:04:49.253Z,3.24
2018-02-15T09:05:49.201Z,3.27
2018-02-15T09:06:49.150Z,3.29
2018-02-15T09:07:49.100Z,3.22
2018-02-15T09:08:49.051Z,3.22
2018-02-15T09:09:49.006Z,3.27
2018-02-15T09:10:48.951Z,3.27
2018-02-15T09:11:48.907Z,3.27
2018-02-15T09:12:48.855Z,3.26
2018-02-15T09:13:48.809Z,3.36
2018-02-15T09:14:48.759Z,3.34
2018-02-15T09:15:48.706Z,3.36
2018-02-15T09:16:48.658Z,3.46
2018-02-15T09:17:48.608Z,3.45
2018-02-15T09:18:48.561Z,3.43
2018-02-15T09:19:48.509Z,3.46
2018-02-15T09:20:48.465Z,3.34
2018-02-15T09:21:48.415Z,3.33
2018-02-15T09:22:48.367Z,3.37
2018-02-15T09:23:48.316Z,3.41
2018-02-15T09:24:48.268Z,3.41
2018-02-15T09:25:48.219Z,3.45
2018-02-15T09:26:48.173Z,3.45
2018-02-15T09:27:48.118Z,3.33
2018-02-15T09:28:48.069Z,3.40
2018-02-15T09:29:48.027Z,3.43
2018-02-15T09:30:47.974Z,3.43
2018-02-15T09:31:47.925Z,3.45
2018-02-15T09:32:47.876Z,3.53
2018-02-15T09:33:47.822Z,3.45
2018-02-15T09:34:47.779Z,3.34
2018-02-15T09:35:47.729Z,3.55
2018-02-15T09:36:47.683Z,3.34
2018-02-15T09:37:47.632Z,3.50
2018-02-15T09:38:47.580Z,3.49
2018-02-15T09:39:47.529Z,3.52
2018-02-15T09:40:47.482Z,3.46
2018-02-15T09:41:47.435Z,3.50
2018-02-15T09:42:47.383Z,3.45
2018-02-15T09:43:47.339Z,3.45
2018-02-15T09:44:47.290Z,3.43
2018-02-15T09:45:47.291Z,3.55
2018-02-15T09:46:47.198Z,3.36
2018-02-15T09:47:47.139Z,3.50
2018-02-15T09:48:47.089Z,3.41
2018-02-15T09:49:47.044Z,3.49
2018-02-15T09:50:46.993Z,3.48
2018-02-15T09:51:46.940Z,3.41
2018-02-15T09:52:46.897Z,3.45
2018-02-15T09:53:46.849Z,3.45
2018-02-15T09:54:46.796Z,3.45
2018-02-15T09:55:46.746Z,3.43
2018-02-15T09:56:46.696Z,3.40
2018-02-15T09:57:46.647Z,3.43
2018-02-15T09:58:46.598Z,3.48
2018-02-15T09:59:46.553Z,3.43
2018-02-15T10:00:46.504Z,3.52
2018-02-15T10:01:46.452Z,3.41
2018-02-15T10:02:46.403Z,3.41
2018-02-15T10:03:46.353Z,3.41
2018-02-15T10:04:46.304Z,3.53
2018-02-15T10:05:46.257Z,3.52
2018-02-15T10:06:46.207Z,3.46
2018-02-15T10:07:46.159Z,3.49
2018-02-15T10:08:46.115Z,3.52
2018-02-15T10:09:46.065Z,3.40
2018-02-15T10:10:46.017Z,3.50
2018-02-15T10:11:45.965Z,3.52
2018-02-15T10:12:45.922Z,3.58
2018-02-15T10:13:45.865Z,3.63
2018-02-15T10:14:45.815Z,3.59
2018-02-15T10:15:45.767Z,3.56
2018-02-15T10:16:45.719Z,3.59
2018-02-15T10:17:45.672Z,3.49
2018-02-15T10:18:45.619Z,3.53
2018-02-15T10:19:45.568Z,3.53
2018-02-15T10:20:45.524Z,3.53
2018-02-15T10:21:45.474Z,3.64
2018-02-15T10:22:45.434Z,3.56
2018-02-15T10:23:45.376Z,3.56
2018-02-15T10:24:45.326Z,3.40
2018-02-15T10:25:45.279Z,3.50
2018-02-15T10:26:45.233Z,3.46
2018-02-15T10:27:45.178Z,3.49
2018-02-15T10:28:45.130Z,3.50
2018-02-15T10:29:45.085Z,3.52
2018-02-15T10:30:45.035Z,3.56
2018-02-15T10:31:44.984Z,3.49
2018-02-15T10:32:44.934Z,3.58
2018-02-15T10:33:44.885Z,3.58
2018-02-15T10:34:44.838Z,3.61
2018-02-15T10:35:44.786Z,3.48
2018-02-15T10:36:44.742Z,3.56
2018-02-15T10:37:44.691Z,3.49
2018-02-15T10:38:44.641Z,3.48
2018-02-15T10:39:44.592Z,3.50
2018-02-15T10:40:44.542Z,3.50
2018-02-15T10:41:44.496Z,3.53
2018-02-15T10:42:44.446Z,3.49
2018-02-15T10:43:44.399Z,3.52
2018-02-15T10:44:44.351Z,3.53
2018-02-15T10:45:44.301Z,3.58
2018-02-15T10:46:44.256Z,3.50
2018-02-15T10:47:44.202Z,3.50
2018-02-15T10:48:44.151Z,3.49
2018-02-15T10:49:44.102Z,3.48
2018-02-15T10:50:44.054Z,3.50
2018-02-15T10:51:44.007Z,3.52
2018-02-15T10:52:43.957Z,3.52
2018-02-15T10:53:43.908Z,3.55
2018-02-15T10:54:43.862Z,3.49
2018-02-15T10:55:43.813Z,3.53
2018-02-15T10:56:43.763Z,3.50
2018-02-15T10:57:43.711Z,3.52
2018-02-15T10:58:43.664Z,3.50
2018-02-15T10:59:43.614Z,3.55
2018-02-15T11:00:43.565Z,3.49
2018-02-15T11:01:43.516Z,3.45
2018-02-15T11:02:43.468Z,3.43
2018-02-15T11:03:43.421Z,3.46
2018-02-15T11:04:43.371Z,3.48
2018-02-15T11:05:43.319Z,3.52
2018-02-15T11:06:43.271Z,3.50
2018-02-15T11:07:43.223Z,3.49
2018-02-15T11:08:43.178Z,3.55
2018-02-15T11:09:43.125Z,3.49
2018-02-15T11:10:43.077Z,3.53
2018-02-15T11:11:43.033Z,3.50
2018-02-15T11:12:42.976Z,3.52
2018-02-15T11:13:42.938Z,3.48
2018-02-15T11:14:42.880Z,3.56
2018-02-15T11:15:42.832Z,3.58
2018-02-15T11:16:42.790Z,3.59
2018-02-15T11:17:42.736Z,3.66
2018-02-15T11:18:42.684Z,3.66
2018-02-15T11:19:42.635Z,3.68
2018-02-15T11:20:42.586Z,3.70
2018-02-15T11:21:42.544Z,3.73
2018-02-15T11:22:42.488Z,3.73
2018-02-15T11:23:42.442Z,3.70
2018-02-15T11:24:42.397Z,3.77
2018-02-15T11:25:42.343Z,3.73
2018-02-15T11:26:42.296Z,3.68
2018-02-15T11:27:42.246Z,3.70
2018-02-15T11:28:42.198Z,3.73
2018-02-15T11:29:42.147Z,3.70
2018-02-15T11:30:42.102Z,3.67
2018-02-15T11:31:42.093Z,3.74
2018-02-15T11:32:42.001Z,3.73
2018-02-15T11:33:41.957Z,3.82
2018-02-15T11:34:41.906Z,3.78
2018-02-15T11:35:41.857Z,3.76
2018-02-15T11:36:41.820Z,3.77
2018-02-15T11:37:41.758Z,3.81
2018-02-15T11:38:41.712Z,3.85
2018-02-15T11:39:41.665Z,3.85
2018-02-15T11:40:41.614Z,3.85
2018-02-15T11:41:41.567Z,3.89
2018-02-15T11:42:41.522Z,3.88
2018-02-15T11:43:41.472Z,3.86
2018-02-15T11:44:41.421Z,3.91
2018-02-15T11:45:41.372Z,3.94
2018-02-15T11:46:41.322Z,3.84
2018-02-15T11:47:41.270Z,3.96
2018-02-15T11:48:41.227Z,3.85
2018-02-15T11:49:41.176Z,3.92
2018-02-15T11:50:41.128Z,3.91
2018-02-15T11:51:41.079Z,4.02
2018-02-15T11:52:41.029Z,3.91
2018-02-15T11:53:40.981Z,3.99
2018-02-15T11:54:40.932Z,3.85
2018-02-15T11:55:40.893Z,3.96
2018-02-15T11:56:40.878Z,3.92
2018-02-15T11:57:40.788Z,4.03
2018-02-15T11:58:40.738Z,4.00
2018-02-15T11:59:40.690Z,4.07
2018-02-15T12:00:40.642Z,4.04
2018-02-15T12:01:40.592Z,4.12
2018-02-15T12:02:40.548Z,4.14
2018-02-15T12:03:40.497Z,4.10
2018-02-15T12:04:40.447Z,4.18
2018-02-15T12:05:40.400Z,4.21
2018-02-15T12:06:40.355Z,4.18
2018-02-15T12:07:40.304Z,4.16
2018-02-15T12:08:40.254Z,4.34
2018-02-15T12:09:40.208Z,4.22
2018-02-15T12:10:40.182Z,4.31
2018-02-15T12:11:40.111Z,4.24
2018-02-15T12:12:40.066Z,4.24
2018-02-15T12:13:40.014Z,4.24
2018-02-15T12:14:39.965Z,4.16
2018-02-15T12:15:39.918Z,4.13
2018-02-15T12:16:39.868Z,4.18
2018-02-15T12:17:39.826Z,4.21
2018-02-15T12:18:39.774Z,4.18
2018-02-15T12:19:39.728Z,4.18
2018-02-15T12:20:39.675Z,4.18
2018-02-15T12:21:39.629Z,4.28
2018-02-15T12:22:39.584Z,4.20
2018-02-15T12:23:39.535Z,4.13
2018-02-15T12:24:39.484Z,4.25
2018-02-15T12:25:39.435Z,4.30
2018-02-15T12:26:39.389Z,4.27
2018-02-15T12:27:39.338Z,4.39
2018-02-15T12:28:39.291Z,4.31
2018-02-15T12:29:39.240Z,4.40
2018-02-15T12:30:39.192Z,4.42
2018-02-15T12:31:39.145Z,4.46
2018-02-15T12:32:39.096Z,4.40
2018-02-15T12:33:39.048Z,4.34
2018-02-15T12:34:39.001Z,4.42
2018-02-15T12:35:38.957Z,4.43
2018-02-15T12:36:38.909Z,4.42
2018-02-15T12:37:38.860Z,4.45
2018-02-15T12:38:38.807Z,4.45
2018-02-15T12:39:38.758Z,4.39
2018-02-15T12:40:38.709Z,4.43
2018-02-15T12:41:38.671Z,4.40
2018-02-15T12:42:38.617Z,4.42
2018-02-15T12:43:38.569Z,4.52
2018-02-15T12:44:38.521Z,4.57
2018-02-15T12:45:38.472Z,4.56
2018-02-15T12:46:38.425Z,4.58
2018-02-15T12:47:38.374Z,4.56
2018-02-15T12:48:38.329Z,4.61
2018-02-15T12:49:38.287Z,4.52
2018-02-15T12:50:38.238Z,4.53
2018-02-15T12:51:38.183Z,4.56
2018-02-15T12:52:38.140Z,4.53
2018-02-15T12:53:38.088Z,4.50
2018-02-15T12:54:38.041Z,4.64
2018-02-15T12:55:37.989Z,4.63
2018-02-15T12:56:37.946Z,4.66
2018-02-15T12:57:37.895Z,4.64
2018-02-15T12:58:37.849Z,4.66
2018-02-15T12:59:37.801Z,4.64
2018-02-15T13:00:37.751Z,4.67
2018-02-15T13:01:37.704Z,4.64
2018-02-15T13:02:37.657Z,4.75
2018-02-15T13:03:37.605Z,4.67
2018-02-15T13:04:37.560Z,4.66
2018-02-15T13:05:37.512Z,4.64
2018-02-15T13:06:37.509Z,4.74
2018-02-15T13:07:37.416Z,4.74
2018-02-15T13:08:37.366Z,4.71
2018-02-15T13:09:37.319Z,4.68
2018-02-15T13:10:37.275Z,4.71
2018-02-15T13:11:37.224Z,4.71
2018-02-15T13:12:37.174Z,4.74
2018-02-15T13:13:37.129Z,4.68
2018-02-15T13:14:37.083Z,4.86
2018-02-15T13:15:37.038Z,4.76
2018-02-15T13:16:36.984Z,4.83
2018-02-15T13:17:36.935Z,4.86
2018-02-15T13:18:36.888Z,4.78